FYLZ

Details ICAO FYLZ (LUD)
Name LUDERITZ
Region Namibia
Timezone Africa/Windhoek (UTC+2.0)
Plans Departing 10
Arriving 7
Stats Elevation 457 ft / 139 m (AMSL)
Location -26.685936° 15.246039°
Runways 2
Magnetic Variation 16.896° W
Sunrise 2017-12-11 04:00:15 UTC / 2017-12-11 06:00:15 Local
Sunset 2017-12-11 17:47:09 UTC / 2017-12-11 19:47:09 Local
Advertisement - Login to hide

Runways

ID Width Length Bearing (true) Bearing (mag) Surface Threshold Offset Overrun Length
04 98 ft / 30 m 6,038 ft / 1,840 m 16.86° 33.76° Asphalt 0 ft / 0 m 0 ft / 0 m
12 98 ft / 30 m 3,940 ft / 1,201 m 98.99° 115.89° Gravel 0 ft / 0 m 0 ft / 0 m
22 98 ft / 30 m 6,038 ft / 1,840 m 196.85° 213.75° Asphalt 0 ft / 0 m 0 ft / 0 m
30 98 ft / 30 m 3,940 ft / 1,201 m 278.98° 295.88° Gravel 0 ft / 0 m 0 ft / 0 m

Map

Weather


0- 5 10 15 20 25 30 35+ Temperature / ° C

Clouds and Precipitation
Forecast for 2017-12-11 06:00 UTC. Updated an hour ago

Ground ~20,000 ft ~40,000 ft Winds

METAR

FYLZ 110400Z AUTO 02002KT //// // ////// 15/11 Q1010

TAF

Not found

Frequencies

Unicom 124.80 MHz CTAF
Warning: Do not use this data for real-world aviation or navigation. No guarantee of current accuracy is given.